sensor_id;sensor_type;location;lat;lon;timestamp;temperature;humidity
71142;DHT22;58808;59.366;17.970;2022-08-18T00:01:02;20.80;99.90
71142;DHT22;58808;59.366;17.970;2022-08-18T00:03:29;20.80;99.90
71142;DHT22;58808;59.366;17.970;2022-08-18T00:05:55;20.80;99.90
71142;DHT22;58808;59.366;17.970;2022-08-18T00:08:20;20.80;99.90
71142;DHT22;58808;59.366;17.970;2022-08-18T00:10:46;20.80;99.90
71142;DHT22;58808;59.366;17.970;2022-08-18T00:13:11;20.80;99.90
71142;DHT22;58808;59.366;17.970;2022-08-18T00:15:37;20.80;99.90
71142;DHT22;58808;59.366;17.970;2022-08-18T00:18:03;20.70;99.90
71142;DHT22;58808;59.366;17.970;2022-08-18T00:20:28;20.60;99.90
71142;DHT22;58808;59.366;17.970;2022-08-18T00:22:54;20.60;99.90
71142;DHT22;58808;59.366;17.970;2022-08-18T00:25:23;20.40;99.90
71142;DHT22;58808;59.366;17.970;2022-08-18T00:27:49;20.40;99.90
71142;DHT22;58808;59.366;17.970;2022-08-18T00:30:19;20.40;99.90
71142;DHT22;58808;59.366;17.970;2022-08-18T00:32:56;20.40;99.90
71142;DHT22;58808;59.366;17.970;2022-08-18T00:35:34;20.40;99.90
71142;DHT22;58808;59.366;17.970;2022-08-18T00:38:03;20.40;99.90
71142;DHT22;58808;59.366;17.970;2022-08-18T00:40:36;20.30;99.90
71142;DHT22;58808;59.366;17.970;2022-08-18T00:43:04;20.20;99.90
71142;DHT22;58808;59.366;17.970;2022-08-18T00:45:36;20.30;99.90
71142;DHT22;58808;59.366;17.970;2022-08-18T00:48:07;20.30;99.90
71142;DHT22;58808;59.366;17.970;2022-08-18T00:50:38;20.20;99.90
71142;DHT22;58808;59.366;17.970;2022-08-18T00:53:11;20.20;99.90
71142;DHT22;58808;59.366;17.970;2022-08-18T00:55:39;20.30;99.90
71142;DHT22;58808;59.366;17.970;2022-08-18T00:58:19;20.30;99.90
71142;DHT22;58808;59.366;17.970;2022-08-18T01:00:48;20.20;99.90
71142;DHT22;58808;59.366;17.970;2022-08-18T01:03:16;20.20;99.90
71142;DHT22;58808;59.366;17.970;2022-08-18T01:05:55;20.10;99.90
71142;DHT22;58808;59.366;17.970;2022-08-18T01:08:24;20.10;99.90
71142;DHT22;58808;59.366;17.970;2022-08-18T01:10:50;20.10;99.90
71142;DHT22;58808;59.366;17.970;2022-08-18T01:13:16;20.00;99.90
71142;DHT22;58808;59.366;17.970;2022-08-18T01:15:42;20.00;99.90
71142;DHT22;58808;59.366;17.970;2022-08-18T01:18:13;20.00;99.90
71142;DHT22;58808;59.366;17.970;2022-08-18T01:21:21;19.90;99.90
71142;DHT22;58808;59.366;17.970;2022-08-18T01:24:08;19.80;99.90
71142;DHT22;58808;59.366;17.970;2022-08-18T01:26:39;19.80;99.90
71142;DHT22;58808;59.366;17.970;2022-08-18T01:29:07;19.80;99.90
71142;DHT22;58808;59.366;17.970;2022-08-18T01:31:51;19.80;99.90
71142;DHT22;58808;59.366;17.970;2022-08-18T01:34:20;19.80;99.90
71142;DHT22;58808;59.366;17.970;2022-08-18T01:36:49;19.80;99.90
71142;DHT22;58808;59.366;17.970;2022-08-18T01:39:17;19.70;99.90
71142;DHT22;58808;59.366;17.970;2022-08-18T01:41:42;19.70;99.90
71142;DHT22;58808;59.366;17.970;2022-08-18T01:44:08;19.70;99.90
71142;DHT22;58808;59.366;17.970;2022-08-18T01:46:38;19.70;99.90
71142;DHT22;58808;59.366;17.970;2022-08-18T01:49:04;19.70;99.90
71142;DHT22;58808;59.366;17.970;2022-08-18T01:51:31;19.70;99.90
71142;DHT22;58808;59.366;17.970;2022-08-18T01:56:22;19.70;99.90
71142;DHT22;58808;59.366;17.970;2022-08-18T01:58:47;19.70;99.90
71142;DHT22;58808;59.366;17.970;2022-08-18T02:01:14;19.70;99.90
71142;DHT22;58808;59.366;17.970;2022-08-18T02:03:43;19.60;99.90
71142;DHT22;58808;59.366;17.970;2022-08-18T02:06:14;19.60;99.90
71142;DHT22;58808;59.366;17.970;2022-08-18T02:08:41;19.60;99.90
71142;DHT22;58808;59.366;17.970;2022-08-18T02:11:07;19.50;99.90
71142;DHT22;58808;59.366;17.970;2022-08-18T02:13:33;19.50;99.90
71142;DHT22;58808;59.366;17.970;2022-08-18T02:16:00;19.50;99.90
71142;DHT22;58808;59.366;17.970;2022-08-18T02:18:28;19.60;99.90
71142;DHT22;58808;59.366;17.970;2022-08-18T02:20:56;19.60;99.90
71142;DHT22;58808;59.366;17.970;2022-08-18T02:23:22;19.60;99.90
71142;DHT22;58808;59.366;17.970;2022-08-18T02:25:48;19.60;99.90
71142;DHT22;58808;59.366;17.970;2022-08-18T02:28:14;19.60;99.90
71142;DHT22;58808;59.366;17.970;2022-08-18T02:30:41;19.50;99.90
71142;DHT22;58808;59.366;17.970;2022-08-18T02:33:08;19.50;99.90
71142;DHT22;58808;59.366;17.970;2022-08-18T02:35:35;19.40;99.90
71142;DHT22;58808;59.366;17.970;2022-08-18T02:38:02;19.50;99.90
71142;DHT22;58808;59.366;17.970;2022-08-18T02:40:32;19.50;99.90
71142;DHT22;58808;59.366;17.970;2022-08-18T02:42:58;19.50;99.90
71142;DHT22;58808;59.366;17.970;2022-08-18T02:45:29;19.50;99.90
71142;DHT22;58808;59.366;17.970;2022-08-18T02:47:56;19.50;99.90
71142;DHT22;58808;59.366;17.970;2022-08-18T02:50:22;19.60;99.90
71142;DHT22;58808;59.366;17.970;2022-08-18T02:52:48;19.50;99.90
71142;DHT22;58808;59.366;17.970;2022-08-18T02:55:14;19.40;99.90
71142;DHT22;58808;59.366;17.970;2022-08-18T02:57:45;19.40;99.90
71142;DHT22;58808;59.366;17.970;2022-08-18T03:00:16;19.40;99.90
71142;DHT22;58808;59.366;17.970;2022-08-18T03:02:49;19.30;99.90
71142;DHT22;58808;59.366;17.970;2022-08-18T03:05:16;19.20;99.90
71142;DHT22;58808;59.366;17.970;2022-08-18T03:07:42;19.20;99.90
71142;DHT22;58808;59.366;17.970;2022-08-18T03:10:08;19.30;99.90
71142;DHT22;58808;59.366;17.970;2022-08-18T03:12:34;19.20;99.90
71142;DHT22;58808;59.366;17.970;2022-08-18T03:15:00;19.20;99.90
71142;DHT22;58808;59.366;17.970;2022-08-18T03:17:26;19.20;99.90
71142;DHT22;58808;59.366;17.970;2022-08-18T03:19:52;19.30;99.90
71142;DHT22;58808;59.366;17.970;2022-08-18T03:22:18;19.20;99.90
71142;DHT22;58808;59.366;17.970;2022-08-18T03:24:43;19.20;99.90
71142;DHT22;58808;59.366;17.970;2022-08-18T03:27:09;19.20;99.90
71142;DHT22;58808;59.366;17.970;2022-08-18T03:29:35;19.20;99.90
71142;DHT22;58808;59.366;17.970;2022-08-18T03:32:02;19.20;99.90
71142;DHT22;58808;59.366;17.970;2022-08-18T03:34:28;19.10;99.90
71142;DHT22;58808;59.366;17.970;2022-08-18T03:36:54;19.00;99.90
71142;DHT22;58808;59.366;17.970;2022-08-18T03:39:19;19.10;99.90
71142;DHT22;58808;59.366;17.970;2022-08-18T03:41:49;19.10;99.90
71142;DHT22;58808;59.366;17.970;2022-08-18T03:44:18;19.00;99.90
71142;DHT22;58808;59.366;17.970;2022-08-18T03:46:44;19.00;99.90
71142;DHT22;58808;59.366;17.970;2022-08-18T03:49:11;19.00;99.90
71142;DHT22;58808;59.366;17.970;2022-08-18T03:51:37;19.00;99.90
71142;DHT22;58808;59.366;17.970;2022-08-18T03:54:04;19.00;99.90
71142;DHT22;58808;59.366;17.970;2022-08-18T03:56:35;19.00;99.90
71142;DHT22;58808;59.366;17.970;2022-08-18T03:59:09;19.10;99.90
71142;DHT22;58808;59.366;17.970;2022-08-18T04:01:38;19.10;99.90
71142;DHT22;58808;59.366;17.970;2022-08-18T04:04:07;19.10;99.90
71142;DHT22;58808;59.366;17.970;2022-08-18T04:06:41;19.10;99.90
71142;DHT22;58808;59.366;17.970;2022-08-18T04:09:09;19.10;99.90
71142;DHT22;58808;59.366;17.970;2022-08-18T04:11:36;19.10;99.90
71142;DHT22;58808;59.366;17.970;2022-08-18T04:14:05;19.10;99.90
71142;DHT22;58808;59.366;17.970;2022-08-18T04:16:32;19.20;99.90
71142;DHT22;58808;59.366;17.970;2022-08-18T04:18:59;19.10;99.90
71142;DHT22;58808;59.366;17.970;2022-08-18T04:21:28;19.10;99.90
71142;DHT22;58808;59.366;17.970;2022-08-18T04:23:56;19.10;99.90
71142;DHT22;58808;59.366;17.970;2022-08-18T04:26:21;19.10;99.90
71142;DHT22;58808;59.366;17.970;2022-08-18T04:28:47;19.20;99.90
71142;DHT22;58808;59.366;17.970;2022-08-18T04:31:16;19.20;99.90
71142;DHT22;58808;59.366;17.970;2022-08-18T04:33:42;19.20;99.90
71142;DHT22;58808;59.366;17.970;2022-08-18T04:36:11;19.30;99.90
71142;DHT22;58808;59.366;17.970;2022-08-18T04:38:38;19.30;99.90
71142;DHT22;58808;59.366;17.970;2022-08-18T04:41:05;19.40;99.90
71142;DHT22;58808;59.366;17.970;2022-08-18T04:43:31;19.50;99.90
71142;DHT22;58808;59.366;17.970;2022-08-18T04:45:57;19.50;99.90
71142;DHT22;58808;59.366;17.970;2022-08-18T04:48:31;19.60;99.90
71142;DHT22;58808;59.366;17.970;2022-08-18T04:53:29;19.80;99.90
71142;DHT22;58808;59.366;17.970;2022-08-18T04:56:25;19.80;99.90
71142;DHT22;58808;59.366;17.970;2022-08-18T04:58:57;19.90;99.90
71142;DHT22;58808;59.366;17.970;2022-08-18T05:01:26;19.90;99.90
71142;DHT22;58808;59.366;17.970;2022-08-18T05:03:53;19.90;99.90
71142;DHT22;58808;59.366;17.970;2022-08-18T05:06:20;20.00;99.90
71142;DHT22;58808;59.366;17.970;2022-08-18T05:09:00;20.00;99.90
71142;DHT22;58808;59.366;17.970;2022-08-18T05:11:28;20.00;99.90
71142;DHT22;58808;59.366;17.970;2022-08-18T05:13:57;20.20;99.90
71142;DHT22;58808;59.366;17.970;2022-08-18T05:16:24;20.20;99.90
71142;DHT22;58808;59.366;17.970;2022-08-18T05:18:50;20.30;99.90
71142;DHT22;58808;59.366;17.970;2022-08-18T05:21:18;20.30;99.90
71142;DHT22;58808;59.366;17.970;2022-08-18T05:23:45;20.40;99.90
71142;DHT22;58808;59.366;17.970;2022-08-18T05:26:12;20.30;99.90
71142;DHT22;58808;59.366;17.970;2022-08-18T05:28:40;20.40;99.90
71142;DHT22;58808;59.366;17.970;2022-08-18T05:31:12;20.40;99.90
71142;DHT22;58808;59.366;17.970;2022-08-18T05:33:38;20.50;99.90
71142;DHT22;58808;59.366;17.970;2022-08-18T05:39:25;20.60;99.90
71142;DHT22;58808;59.366;17.970;2022-08-18T05:42:02;20.50;99.90
71142;DHT22;58808;59.366;17.970;2022-08-18T05:44:33;20.50;99.90
71142;DHT22;58808;59.366;17.970;2022-08-18T05:47:10;20.40;99.90
71142;DHT22;58808;59.366;17.970;2022-08-18T05:49:37;20.40;99.90
71142;DHT22;58808;59.366;17.970;2022-08-18T05:52:06;20.40;99.90
71142;DHT22;58808;59.366;17.970;2022-08-18T05:54:39;20.50;99.90
71142;DHT22;58808;59.366;17.970;2022-08-18T05:57:29;20.50;99.90
71142;DHT22;58808;59.366;17.970;2022-08-18T05:59:57;20.60;99.90
71142;DHT22;58808;59.366;17.970;2022-08-18T06:02:33;20.60;99.90
71142;DHT22;58808;59.366;17.970;2022-08-18T06:05:08;20.60;99.90
71142;DHT22;58808;59.366;17.970;2022-08-18T06:07:48;20.70;99.90
71142;DHT22;58808;59.366;17.970;2022-08-18T06:10:15;20.70;99.90
71142;DHT22;58808;59.366;17.970;2022-08-18T06:12:43;20.70;99.90
71142;DHT22;58808;59.366;17.970;2022-08-18T06:15:19;20.70;99.90
71142;DHT22;58808;59.366;17.970;2022-08-18T06:18:10;20.80;99.90
71142;DHT22;58808;59.366;17.970;2022-08-18T06:26:09;21.00;99.90
71142;DHT22;58808;59.366;17.970;2022-08-18T06:31:42;21.00;99.90
71142;DHT22;58808;59.366;17.970;2022-08-18T06:34:21;21.10;99.90
71142;DHT22;58808;59.366;17.970;2022-08-18T06:36:56;21.20;99.90
71142;DHT22;58808;59.366;17.970;2022-08-18T06:42:08;21.40;99.90
71142;DHT22;58808;59.366;17.970;2022-08-18T06:44:35;21.50;99.90
71142;DHT22;58808;59.366;17.970;2022-08-18T06:50:05;21.40;99.90
71142;DHT22;58808;59.366;17.970;2022-08-18T06:52:35;21.50;99.90
71142;DHT22;58808;59.366;17.970;2022-08-18T06:55:08;21.50;99.90
71142;DHT22;58808;59.366;17.970;2022-08-18T06:57:39;21.60;99.90
71142;DHT22;58808;59.366;17.970;2022-08-18T07:00:20;21.70;99.90
71142;DHT22;58808;59.366;17.970;2022-08-18T07:02:51;21.80;99.90
71142;DHT22;58808;59.366;17.970;2022-08-18T07:05:24;22.00;99.90
71142;DHT22;58808;59.366;17.970;2022-08-18T07:08:14;22.10;99.90
71142;DHT22;58808;59.366;17.970;2022-08-18T07:10:47;22.30;99.90
71142;DHT22;58808;59.366;17.970;2022-08-18T07:15:41;22.40;99.90
71142;DHT22;58808;59.366;17.970;2022-08-18T07:18:11;22.60;99.90
71142;DHT22;58808;59.366;17.970;2022-08-18T07:20:59;22.70;99.90
71142;DHT22;58808;59.366;17.970;2022-08-18T07:23:31;22.80;99.90
71142;DHT22;58808;59.366;17.970;2022-08-18T07:26:05;23.10;99.90
71142;DHT22;58808;59.366;17.970;2022-08-18T07:28:34;23.50;99.90
71142;DHT22;58808;59.366;17.970;2022-08-18T07:31:33;23.80;99.90
71142;DHT22;58808;59.366;17.970;2022-08-18T07:34:07;23.90;99.90
71142;DHT22;58808;59.366;17.970;2022-08-18T07:36:39;24.00;99.90
71142;DHT22;58808;59.366;17.970;2022-08-18T07:39:19;24.10;99.90
71142;DHT22;58808;59.366;17.970;2022-08-18T07:41:55;24.10;99.90
71142;DHT22;58808;59.366;17.970;2022-08-18T07:47:08;24.50;99.90
71142;DHT22;58808;59.366;17.970;2022-08-18T07:49:36;24.70;99.90
71142;DHT22;58808;59.366;17.970;2022-08-18T07:52:06;24.80;98.50
71142;DHT22;58808;59.366;17.970;2022-08-18T07:57:41;25.00;97.20
71142;DHT22;58808;59.366;17.970;2022-08-18T08:00:41;25.20;96.10
71142;DHT22;58808;59.366;17.970;2022-08-18T08:08:43;25.20;96.30
71142;DHT22;58808;59.366;17.970;2022-08-18T08:11:40;25.50;95.30
71142;DHT22;58808;59.366;17.970;2022-08-18T08:20:00;26.00;84.50
71142;DHT22;58808;59.366;17.970;2022-08-18T08:36:27;27.00;70.00
71142;DHT22;58808;59.366;17.970;2022-08-18T08:38:54;27.10;67.60
71142;DHT22;58808;59.366;17.970;2022-08-18T08:41:44;27.10;67.20
71142;DHT22;58808;59.366;17.970;2022-08-18T08:44:33;27.10;69.60
71142;DHT22;58808;59.366;17.970;2022-08-18T08:47:49;27.20;69.40
71142;DHT22;58808;59.366;17.970;2022-08-18T08:50:02;27.30;68.90
71142;DHT22;58808;59.366;17.970;2022-08-18T08:52:37;27.40;61.50
71142;DHT22;58808;59.366;17.970;2022-08-18T08:55:10;27.40;59.90
71142;DHT22;58808;59.366;17.970;2022-08-18T08:57:52;27.50;66.50
71142;DHT22;58808;59.366;17.970;2022-08-18T09:00:20;27.20;64.00
71142;DHT22;58808;59.366;17.970;2022-08-18T09:03:02;27.00;66.60
71142;DHT22;58808;59.366;17.970;2022-08-18T09:05:42;27.30;62.20
71142;DHT22;58808;59.366;17.970;2022-08-18T09:08:43;27.30;62.80
71142;DHT22;58808;59.366;17.970;2022-08-18T09:24:48;27.30;63.90
71142;DHT22;58808;59.366;17.970;2022-08-18T09:36:39;27.70;62.60
71142;DHT22;58808;59.366;17.970;2022-08-18T09:39:23;28.00;56.70
71142;DHT22;58808;59.366;17.970;2022-08-18T09:42:13;28.00;58.90
71142;DHT22;58808;59.366;17.970;2022-08-18T09:52:59;28.20;56.40
71142;DHT22;58808;59.366;17.970;2022-08-18T09:55:42;28.40;59.50
71142;DHT22;58808;59.366;17.970;2022-08-18T10:06:38;29.00;55.20
71142;DHT22;58808;59.366;17.970;2022-08-18T10:12:40;29.20;54.30
71142;DHT22;58808;59.366;17.970;2022-08-18T10:15:31;29.20;55.80
71142;DHT22;58808;59.366;17.970;2022-08-18T10:28:58;29.10;59.10
71142;DHT22;58808;59.366;17.970;2022-08-18T10:31:26;29.20;55.70
71142;DHT22;58808;59.366;17.970;2022-08-18T10:34:06;29.40;55.70
71142;DHT22;58808;59.366;17.970;2022-08-18T10:36:54;29.50;54.40
71142;DHT22;58808;59.366;17.970;2022-08-18T10:39:22;29.20;55.60
71142;DHT22;58808;59.366;17.970;2022-08-18T10:41:55;29.10;56.70
71142;DHT22;58808;59.366;17.970;2022-08-18T10:44:22;29.20;58.00
71142;DHT22;58808;59.366;17.970;2022-08-18T10:46:49;29.50;56.30
71142;DHT22;58808;59.366;17.970;2022-08-18T10:49:20;29.90;53.90
71142;DHT22;58808;59.366;17.970;2022-08-18T10:54:56;30.20;53.00
71142;DHT22;58808;59.366;17.970;2022-08-18T11:00:21;30.30;53.00
71142;DHT22;58808;59.366;17.970;2022-08-18T11:05:33;30.50;52.00
71142;DHT22;58808;59.366;17.970;2022-08-18T11:08:18;30.60;51.40
71142;DHT22;58808;59.366;17.970;2022-08-18T11:10:47;30.80;50.80
71142;DHT22;58808;59.366;17.970;2022-08-18T11:14:20;30.80;51.80
71142;DHT22;58808;59.366;17.970;2022-08-18T11:19:07;30.50;52.40
71142;DHT22;58808;59.366;17.970;2022-08-18T11:26:41;30.20;51.40
71142;DHT22;58808;59.366;17.970;2022-08-18T11:32:07;29.60;53.90
71142;DHT22;58808;59.366;17.970;2022-08-18T11:37:56;30.10;55.70
71142;DHT22;58808;59.366;17.970;2022-08-18T11:40:38;30.30;50.90
71142;DHT22;58808;59.366;17.970;2022-08-18T11:45:57;30.50;51.50
71142;DHT22;58808;59.366;17.970;2022-08-18T11:48:43;30.60;51.00
71142;DHT22;58808;59.366;17.970;2022-08-18T11:58:54;31.00;50.00
71142;DHT22;58808;59.366;17.970;2022-08-18T12:01:37;31.00;50.60
71142;DHT22;58808;59.366;17.970;2022-08-18T12:11:56;30.90;51.30
71142;DHT22;58808;59.366;17.970;2022-08-18T12:14:25;30.80;52.30
71142;DHT22;58808;59.366;17.970;2022-08-18T12:19:58;30.70;53.90
71142;DHT22;58808;59.366;17.970;2022-08-18T12:22:27;30.40;54.00
71142;DHT22;58808;59.366;17.970;2022-08-18T12:24:54;30.30;54.90
71142;DHT22;58808;59.366;17.970;2022-08-18T12:27:22;30.20;55.30
71142;DHT22;58808;59.366;17.970;2022-08-18T12:29:53;30.30;57.30
71142;DHT22;58808;59.366;17.970;2022-08-18T12:32:21;30.20;59.00
71142;DHT22;58808;59.366;17.970;2022-08-18T12:34:47;30.20;56.50
71142;DHT22;58808;59.366;17.970;2022-08-18T12:37:22;30.40;56.00
71142;DHT22;58808;59.366;17.970;2022-08-18T12:42:14;30.20;59.90
71142;DHT22;58808;59.366;17.970;2022-08-18T12:44:39;30.40;55.70
71142;DHT22;58808;59.366;17.970;2022-08-18T12:47:22;30.50;55.40
71142;DHT22;58808;59.366;17.970;2022-08-18T12:49:49;30.60;56.10
71142;DHT22;58808;59.366;17.970;2022-08-18T12:52:15;30.50;54.70
71142;DHT22;58808;59.366;17.970;2022-08-18T12:54:43;30.30;55.70
71142;DHT22;58808;59.366;17.970;2022-08-18T12:57:21;29.70;58.80
71142;DHT22;58808;59.366;17.970;2022-08-18T12:59:49;29.30;62.60
71142;DHT22;58808;59.366;17.970;2022-08-18T13:02:15;29.10;66.10
71142;DHT22;58808;59.366;17.970;2022-08-18T13:04:41;29.30;65.50
71142;DHT22;58808;59.366;17.970;2022-08-18T13:07:09;29.30;66.00
71142;DHT22;58808;59.366;17.970;2022-08-18T13:09:35;29.70;63.20
71142;DHT22;58808;59.366;17.970;2022-08-18T13:12:02;29.90;61.00
71142;DHT22;58808;59.366;17.970;2022-08-18T13:14:27;29.70;62.70
71142;DHT22;58808;59.366;17.970;2022-08-18T13:16:53;29.60;63.40
71142;DHT22;58808;59.366;17.970;2022-08-18T13:19:19;29.50;65.10
71142;DHT22;58808;59.366;17.970;2022-08-18T13:21:45;29.30;64.50
71142;DHT22;58808;59.366;17.970;2022-08-18T13:24:11;29.20;67.70
71142;DHT22;58808;59.366;17.970;2022-08-18T13:26:42;29.00;68.00
71142;DHT22;58808;59.366;17.970;2022-08-18T13:29:08;28.60;74.10
71142;DHT22;58808;59.366;17.970;2022-08-18T13:31:34;28.30;79.40
71142;DHT22;58808;59.366;17.970;2022-08-18T13:34:00;28.10;82.80
71142;DHT22;58808;59.366;17.970;2022-08-18T13:36:27;27.90;85.10
71142;DHT22;58808;59.366;17.970;2022-08-18T13:39:15;27.70;87.70
71142;DHT22;58808;59.366;17.970;2022-08-18T13:41:42;27.70;89.70
71142;DHT22;58808;59.366;17.970;2022-08-18T13:44:10;27.70;90.50
71142;DHT22;58808;59.366;17.970;2022-08-18T13:46:38;27.50;91.40
71142;DHT22;58808;59.366;17.970;2022-08-18T13:49:11;27.20;93.40
71142;DHT22;58808;59.366;17.970;2022-08-18T13:54:33;26.90;95.20
71142;DHT22;58808;59.366;17.970;2022-08-18T13:57:00;26.90;95.60
71142;DHT22;58808;59.366;17.970;2022-08-18T13:59:33;26.70;97.20
71142;DHT22;58808;59.366;17.970;2022-08-18T14:02:01;26.80;96.80
71142;DHT22;58808;59.366;17.970;2022-08-18T14:04:27;26.70;96.90
71142;DHT22;58808;59.366;17.970;2022-08-18T14:06:54;26.70;97.70
71142;DHT22;58808;59.366;17.970;2022-08-18T14:09:20;26.60;99.00
71142;DHT22;58808;59.366;17.970;2022-08-18T14:11:46;26.60;99.60
71142;DHT22;58808;59.366;17.970;2022-08-18T14:14:14;26.50;99.90
71142;DHT22;58808;59.366;17.970;2022-08-18T14:16:39;26.40;99.90
71142;DHT22;58808;59.366;17.970;2022-08-18T14:19:15;26.30;99.90
71142;DHT22;58808;59.366;17.970;2022-08-18T14:21:59;26.30;99.90
71142;DHT22;58808;59.366;17.970;2022-08-18T14:24:43;26.40;99.90
71142;DHT22;58808;59.366;17.970;2022-08-18T14:27:29;26.40;99.90
71142;DHT22;58808;59.366;17.970;2022-08-18T14:29:56;26.50;99.90
71142;DHT22;58808;59.366;17.970;2022-08-18T14:32:23;26.60;99.90
71142;DHT22;58808;59.366;17.970;2022-08-18T14:34:51;26.60;99.90
71142;DHT22;58808;59.366;17.970;2022-08-18T14:37:18;26.50;99.90
71142;DHT22;58808;59.366;17.970;2022-08-18T14:39:44;26.50;99.90
71142;DHT22;58808;59.366;17.970;2022-08-18T14:42:13;26.50;99.90
71142;DHT22;58808;59.366;17.970;2022-08-18T14:44:39;26.40;99.90
71142;DHT22;58808;59.366;17.970;2022-08-18T14:47:05;26.20;99.90
71142;DHT22;58808;59.366;17.970;2022-08-18T14:49:30;26.20;99.90
71142;DHT22;58808;59.366;17.970;2022-08-18T14:52:00;26.20;99.90
71142;DHT22;58808;59.366;17.970;2022-08-18T14:54:26;26.10;99.90
71142;DHT22;58808;59.366;17.970;2022-08-18T14:56:52;26.10;99.90
71142;DHT22;58808;59.366;17.970;2022-08-18T14:59:18;26.00;99.90
71142;DHT22;58808;59.366;17.970;2022-08-18T15:01:44;25.90;99.90
71142;DHT22;58808;59.366;17.970;2022-08-18T15:04:09;25.90;99.90
71142;DHT22;58808;59.366;17.970;2022-08-18T15:06:40;25.90;99.90
71142;DHT22;58808;59.366;17.970;2022-08-18T15:09:10;25.80;99.90
71142;DHT22;58808;59.366;17.970;2022-08-18T15:11:36;25.60;99.90
71142;DHT22;58808;59.366;17.970;2022-08-18T15:14:01;25.60;99.90
71142;DHT22;58808;59.366;17.970;2022-08-18T15:16:27;25.40;99.90
71142;DHT22;58808;59.366;17.970;2022-08-18T15:18:56;25.40;99.90
71142;DHT22;58808;59.366;17.970;2022-08-18T15:21:22;25.40;99.90
71142;DHT22;58808;59.366;17.970;2022-08-18T15:24:07;25.30;99.90
71142;DHT22;58808;59.366;17.970;2022-08-18T15:26:53;25.30;99.90
71142;DHT22;58808;59.366;17.970;2022-08-18T15:29:19;25.30;99.90
71142;DHT22;58808;59.366;17.970;2022-08-18T15:31:45;25.30;99.90
71142;DHT22;58808;59.366;17.970;2022-08-18T15:34:11;25.30;99.90
71142;DHT22;58808;59.366;17.970;2022-08-18T15:36:36;25.20;99.90
71142;DHT22;58808;59.366;17.970;2022-08-18T15:42:11;25.00;99.90
71142;DHT22;58808;59.366;17.970;2022-08-18T15:44:37;25.00;99.90
71142;DHT22;58808;59.366;17.970;2022-08-18T15:47:08;24.90;99.90
71142;DHT22;58808;59.366;17.970;2022-08-18T15:49:33;24.90;99.90
71142;DHT22;58808;59.366;17.970;2022-08-18T15:51:59;24.90;99.90
71142;DHT22;58808;59.366;17.970;2022-08-18T15:54:24;24.80;99.90
71142;DHT22;58808;59.366;17.970;2022-08-18T15:56:50;24.70;99.90
71142;DHT22;58808;59.366;17.970;2022-08-18T16:03:11;24.60;99.90
71142;DHT22;58808;59.366;17.970;2022-08-18T16:06:01;24.50;99.90
71142;DHT22;58808;59.366;17.970;2022-08-18T16:08:54;24.50;99.90
71142;DHT22;58808;59.366;17.970;2022-08-18T16:11:26;24.50;99.90
71142;DHT22;58808;59.366;17.970;2022-08-18T16:13:51;24.50;99.90
71142;DHT22;58808;59.366;17.970;2022-08-18T16:16:21;24.50;99.90
71142;DHT22;58808;59.366;17.970;2022-08-18T16:18:48;24.40;99.90
71142;DHT22;58808;59.366;17.970;2022-08-18T16:21:20;24.40;99.90
71142;DHT22;58808;59.366;17.970;2022-08-18T16:23:49;24.40;99.90
71142;DHT22;58808;59.366;17.970;2022-08-18T16:26:17;24.40;99.90
71142;DHT22;58808;59.366;17.970;2022-08-18T16:28:49;24.40;99.90
71142;DHT22;58808;59.366;17.970;2022-08-18T16:31:17;24.40;99.90
71142;DHT22;58808;59.366;17.970;2022-08-18T16:33:47;24.40;99.90
71142;DHT22;58808;59.366;17.970;2022-08-18T16:36:13;24.30;99.90
71142;DHT22;58808;59.366;17.970;2022-08-18T16:38:39;24.30;99.90
71142;DHT22;58808;59.366;17.970;2022-08-18T16:41:12;24.20;99.90
71142;DHT22;58808;59.366;17.970;2022-08-18T16:43:42;24.10;99.90
71142;DHT22;58808;59.366;17.970;2022-08-18T16:46:10;24.10;99.90
71142;DHT22;58808;59.366;17.970;2022-08-18T16:48:37;24.10;99.90
71142;DHT22;58808;59.366;17.970;2022-08-18T16:51:02;24.10;99.90
71142;DHT22;58808;59.366;17.970;2022-08-18T16:53:28;23.90;99.90
71142;DHT22;58808;59.366;17.970;2022-08-18T16:55:54;23.60;99.90
71142;DHT22;58808;59.366;17.970;2022-08-18T16:58:20;23.60;99.90
71142;DHT22;58808;59.366;17.970;2022-08-18T17:01:04;23.60;99.90
71142;DHT22;58808;59.366;17.970;2022-08-18T17:03:48;23.50;99.90
71142;DHT22;58808;59.366;17.970;2022-08-18T17:06:34;23.30;99.90
71142;DHT22;58808;59.366;17.970;2022-08-18T17:09:00;23.20;99.90
71142;DHT22;58808;59.366;17.970;2022-08-18T17:11:26;23.30;99.90
71142;DHT22;58808;59.366;17.970;2022-08-18T17:13:54;23.30;99.90
71142;DHT22;58808;59.366;17.970;2022-08-18T17:16:23;23.20;99.90
71142;DHT22;58808;59.366;17.970;2022-08-18T17:18:50;23.30;99.90
71142;DHT22;58808;59.366;17.970;2022-08-18T17:21:19;23.30;99.90
71142;DHT22;58808;59.366;17.970;2022-08-18T17:23:45;23.30;99.90
71142;DHT22;58808;59.366;17.970;2022-08-18T17:26:36;23.30;99.90
71142;DHT22;58808;59.366;17.970;2022-08-18T17:29:25;23.40;99.90
71142;DHT22;58808;59.366;17.970;2022-08-18T17:32:58;23.40;99.90
71142;DHT22;58808;59.366;17.970;2022-08-18T17:35:05;23.40;99.90
71142;DHT22;58808;59.366;17.970;2022-08-18T17:37:33;23.40;99.90
71142;DHT22;58808;59.366;17.970;2022-08-18T17:40:25;23.40;99.90
71142;DHT22;58808;59.366;17.970;2022-08-18T17:42:52;23.50;99.90
71142;DHT22;58808;59.366;17.970;2022-08-18T17:45:19;23.50;99.90
71142;DHT22;58808;59.366;17.970;2022-08-18T17:53:33;23.30;99.90
71142;DHT22;58808;59.366;17.970;2022-08-18T17:56:20;23.10;99.90
71142;DHT22;58808;59.366;17.970;2022-08-18T18:01:39;22.90;99.90
71142;DHT22;58808;59.366;17.970;2022-08-18T18:04:07;22.80;99.90
71142;DHT22;58808;59.366;17.970;2022-08-18T18:06:35;22.70;99.90
71142;DHT22;58808;59.366;17.970;2022-08-18T18:11:46;22.70;99.90
71142;DHT22;58808;59.366;17.970;2022-08-18T18:14:32;22.60;99.90
71142;DHT22;58808;59.366;17.970;2022-08-18T18:17:20;22.70;99.90
71142;DHT22;58808;59.366;17.970;2022-08-18T18:19:56;22.70;99.90
71142;DHT22;58808;59.366;17.970;2022-08-18T18:22:27;22.60;99.90
71142;DHT22;58808;59.366;17.970;2022-08-18T18:24:59;22.60;99.90
71142;DHT22;58808;59.366;17.970;2022-08-18T18:27:36;22.60;99.90
71142;DHT22;58808;59.366;17.970;2022-08-18T18:32:55;22.60;99.90
71142;DHT22;58808;59.366;17.970;2022-08-18T18:35:22;22.70;99.90
71142;DHT22;58808;59.366;17.970;2022-08-18T18:37:52;22.60;99.90
71142;DHT22;58808;59.366;17.970;2022-08-18T18:42:46;22.40;99.90